Time;durP1;ratioP1;P1;durP2;ratioP2;P2;SDS_P1;SDS_P2;PMS_P1;PMS_P2;Temp;Humidity;BMP_temperature;BMP_pressure;BME280_temperature;BME280_humidity;BME280_pressure;Samples;Min_cycle;Max_cycle;Signal;HPM_P1;HPM_P2
2023/08/06 00:00:12;;;;;;;3.80;2.60;;;;;;;18.21;73.06;99911.66;5073260;28;20341;-55
2023/08/06 00:02:42;;;;;;;3.80;2.40;;;;;;;18.15;70.77;99919.94;5084089;28;20290;-55
2023/08/06 00:05:13;;;;;;;4.97;3.07;;;;;;;18.06;71.01;99924.75;5073661;28;20288;-55
2023/08/06 00:07:45;;;;;;;3.97;2.87;;;;;;;18.24;69.87;99928.22;5084677;28;20276;-57
2023/08/06 00:10:16;;;;;;;4.90;3.17;;;;;;;18.21;70.72;99927.53;5073218;28;20364;-56
2023/08/06 00:12:48;;;;;;;5.67;3.20;;;;;;;18.07;72.06;99921.19;5083738;28;20312;-57
2023/08/06 00:15:18;;;;;;;5.40;3.30;;;;;;;17.83;72.80;99917.19;5073004;28;20368;-55
2023/08/06 00:17:49;;;;;;;7.73;3.20;;;;;;;17.76;72.95;99931.63;5069193;28;20361;-56
2023/08/06 00:20:20;;;;;;;5.73;3.33;;;;;;;17.74;74.27;99922.91;5052740;28;20285;-57
2023/08/06 00:22:52;;;;;;;4.27;3.27;;;;;;;17.83;74.63;99930.41;5057368;28;20381;-57
2023/08/06 00:25:22;;;;;;;5.20;3.07;;;;;;;17.98;73.34;99929.59;5063557;28;20274;-56
2023/08/06 00:27:53;;;;;;;5.37;3.67;;;;;;;18.09;71.37;99923.75;5068343;28;20270;-56
2023/08/06 00:30:24;;;;;;;6.00;3.43;;;;;;;18.12;72.70;99923.56;5083625;28;20726;-55
2023/08/06 00:32:54;;;;;;;7.23;3.97;;;;;;;18.13;71.94;99919.16;5073000;28;20376;-54
2023/08/06 00:35:24;;;;;;;6.50;3.87;;;;;;;18.24;71.45;99937.94;5080230;28;20278;-56
2023/08/06 00:37:57;;;;;;;4.90;3.27;;;;;;;18.32;72.02;99925.16;5055244;28;20357;-55
2023/08/06 00:40:28;;;;;;;6.47;3.70;;;;;;;18.79;71.23;99931.47;5067643;28;20282;-57
2023/08/06 00:42:59;;;;;;;5.30;3.77;;;;;;;19.01;68.35;99928.47;5056808;28;20323;-56
2023/08/06 00:45:31;;;;;;;4.97;3.50;;;;;;;19.28;68.67;99926.91;5067178;28;20282;-56
2023/08/06 00:48:02;;;;;;;5.43;3.60;;;;;;;19.68;67.63;99919.28;5057525;28;20301;-55
2023/08/06 00:50:32;;;;;;;5.57;3.50;;;;;;;20.12;67.30;99930.78;5067858;28;20278;-56
2023/08/06 00:53:05;;;;;;;6.47;3.33;;;;;;;20.12;65.61;99933.44;5057381;28;20298;-56
2023/08/06 00:55:36;;;;;;;6.57;4.07;;;;;;;19.99;66.14;99936.00;5083651;28;20293;-55
2023/08/06 00:58:07;;;;;;;6.47;3.30;;;;;;;19.63;63.49;99931.94;5056149;28;20365;-56
2023/08/06 01:00:38;;;;;;;7.27;3.73;;;;;;;19.22;65.55;99921.97;5067102;28;20297;-56
2023/08/06 01:03:08;;;;;;;4.53;3.20;;;;;;;18.82;66.79;99918.94;5055889;28;20276;-55
2023/08/06 01:05:39;;;;;;;5.03;3.60;;;;;;;18.74;69.12;99910.50;5066570;28;20728;-55
2023/08/06 01:08:26;;;;;;;7.00;4.00;;;;;;;18.84;69.19;99903.78;5056038;28;20376;-54
2023/08/06 01:11:16;;;;;;;6.77;3.73;;;;;;;18.97;67.07;99906.63;5039855;28;20773;-56
2023/08/06 01:13:49;;;;;;;5.82;4.00;;;;;;;19.22;67.21;99906.06;5066989;28;20278;-55
2023/08/06 01:16:22;;;;;;;6.17;3.87;;;;;;;19.47;68.32;99909.91;5057974;28;20109;-56
2023/08/06 01:18:52;;;;;;;7.20;3.80;;;;;;;19.54;64.48;99905.97;5076551;28;20280;-55
2023/08/06 01:21:25;;;;;;;7.23;3.60;;;;;;;19.46;65.51;99905.56;5086937;28;20285;-56
2023/08/06 01:23:57;;;;;;;6.07;4.00;;;;;;;19.53;64.89;99906.91;5076188;28;20350;-57
2023/08/06 01:26:37;;;;;;;6.03;4.07;;;;;;;19.63;66.08;99920.47;5086801;28;20281;-55
2023/08/06 01:29:12;;;;;;;5.40;4.17;;;;;;;19.76;65.67;99922.31;5076545;28;20293;-55
2023/08/06 01:31:45;;;;;;;6.77;4.23;;;;;;;20.16;65.75;99914.59;5086870;28;20732;-55
2023/08/06 01:34:22;;;;;;;6.67;4.00;;;;;;;20.19;63.83;99887.91;5075842;28;20278;-55
2023/08/06 01:36:54;;;;;;;6.23;3.83;;;;;;;20.18;64.22;99904.75;5076137;28;20281;-55
2023/08/06 01:39:25;;;;;;;7.17;3.60;;;;;;;20.16;61.85;99919.91;5086814;28;20779;-55
2023/08/06 01:41:55;;;;;;;7.20;4.17;;;;;;;19.71;62.70;99903.19;5076333;28;20778;-55
2023/08/06 01:44:26;;;;;;;5.67;3.90;;;;;;;19.60;62.22;99906.47;5086579;28;20282;-55
2023/08/06 01:46:56;;;;;;;8.73;4.30;;;;;;;19.67;64.69;99912.28;5076175;28;20651;-55
2023/08/06 01:49:27;;;;;;;5.10;3.73;;;;;;;19.96;63.96;99917.63;5085687;28;20284;-56
2023/08/06 01:51:59;;;;;;;6.10;3.87;;;;;;;20.22;61.74;99914.22;5075691;28;20296;-57
2023/08/06 01:54:31;;;;;;;6.70;4.43;;;;;;;20.34;63.19;99922.38;5086439;28;20278;-55
2023/08/06 01:57:01;;;;;;;7.20;3.90;;;;;;;20.42;63.30;99917.47;5076296;28;20285;-57
2023/08/06 01:59:32;;;;;;;8.17;4.13;;;;;;;20.58;64.44;99920.88;5086544;28;20592;-55
2023/08/06 02:02:03;;;;;;;7.73;4.60;;;;;;;20.89;62.84;99924.19;5076354;28;20313;-56
2023/08/06 02:04:33;;;;;;;5.67;4.00;;;;;;;20.93;60.99;99931.03;5086577;28;20282;-55
2023/08/06 02:07:06;;;;;;;10.67;4.77;;;;;;;20.93;61.16;99939.00;5076086;28;20261;-54
2023/08/06 02:09:36;;;;;;;6.97;5.17;;;;;;;21.07;62.14;99933.66;5086316;28;20343;-54
2023/08/06 02:12:08;;;;;;;10.53;6.37;;;;;;;20.98;59.41;99950.16;5068863;28;20354;-55
2023/08/06 02:14:39;;;;;;;7.70;5.00;;;;;;;20.95;61.51;99947.72;5083968;28;20349;-56
2023/08/06 02:17:09;;;;;;;7.70;4.40;;;;;;;21.09;59.02;99946.81;5063947;28;20258;-55
2023/08/06 02:19:40;;;;;;;7.07;4.20;;;;;;;21.36;59.73;99933.53;5080559;28;20322;-56
2023/08/06 02:22:12;;;;;;;11.37;6.50;;;;;;;21.68;60.91;99938.53;5075446;28;20275;-55
2023/08/06 02:24:42;;;;;;;5.97;4.00;;;;;;;22.05;60.37;99933.34;5085879;28;20274;-56
2023/08/06 02:27:13;;;;;;;6.90;4.53;;;;;;;22.40;61.52;99937.06;5075301;28;20274;-57
2023/08/06 02:29:44;;;;;;;9.37;3.80;;;;;;;22.64;60.40;99927.44;5086133;28;20269;-56
2023/08/06 02:32:14;;;;;;;7.47;4.47;;;;;;;22.51;57.71;99935.47;5072684;28;20035;-56
2023/08/06 02:34:45;;;;;;;6.40;4.33;;;;;;;22.11;56.20;99932.91;5073984;28;20087;-56
2023/08/06 02:37:17;;;;;;;9.13;4.63;;;;;;;22.11;56.67;99924.94;5053928;28;20044;-56
2023/08/06 02:39:48;;;;;;;6.80;4.30;;;;;;;22.25;57.73;99932.84;5082302;28;20389;-56
2023/08/06 02:42:18;;;;;;;6.50;4.43;;;;;;;22.46;57.41;99929.63;5072738;28;20446;-56
2023/08/06 02:44:49;;;;;;;8.07;4.20;;;;;;;22.44;57.57;99920.88;5085788;28;20578;-56
2023/08/06 02:47:19;;;;;;;8.00;4.83;;;;;;;22.05;55.46;99936.00;5074913;28;20096;-56
2023/08/06 02:49:50;;;;;;;7.70;4.27;;;;;;;21.66;55.93;99935.13;5082623;28;20059;-57
2023/08/06 02:52:22;;;;;;;13.03;8.23;;;;;;;21.32;57.35;99937.34;5085143;28;20039;-58
2023/08/06 02:54:53;;;;;;;21.60;13.63;;;;;;;21.39;58.52;99944.00;5074925;28;20562;-57
2023/08/06 02:57:23;;;;;;;6.97;4.80;;;;;;;21.40;59.59;99929.75;5084914;28;20168;-56
2023/08/06 02:59:54;;;;;;;7.93;4.80;;;;;;;21.54;59.36;99942.97;5074303;28;20130;-56
2023/08/06 03:02:24;;;;;;;15.57;3.83;;;;;;;21.78;59.39;99944.91;5083829;28;20063;-57
2023/08/06 03:04:55;;;;;;;7.90;4.53;;;;;;;21.95;59.23;99933.97;5074437;28;20428;-56
2023/08/06 03:07:27;;;;;;;8.77;4.30;;;;;;;22.00;59.68;99938.13;5085121;28;20692;-56
2023/08/06 03:10:00;;;;;;;7.87;4.40;;;;;;;21.90;58.07;99938.75;5074488;28;20051;-57
2023/08/06 03:12:31;;;;;;;6.60;4.20;;;;;;;21.71;59.01;99933.00;5084963;28;20741;-56
2023/08/06 03:15:02;;;;;;;7.40;4.50;;;;;;;21.74;56.52;99930.13;5075033;28;20047;-57
2023/08/06 03:17:32;;;;;;;8.37;4.47;;;;;;;21.88;58.63;99914.06;5084017;28;20048;-57
2023/08/06 03:20:03;;;;;;;5.77;3.93;;;;;;;22.07;57.96;99912.81;5075106;28;20470;-56
2023/08/06 03:22:35;;;;;;;6.97;5.13;;;;;;;22.19;56.90;99914.63;5085208;28;20051;-57
2023/08/06 03:25:06;;;;;;;12.40;9.83;;;;;;;21.85;57.33;99914.28;5074832;28;20454;-57
2023/08/06 03:27:37;;;;;;;8.17;4.97;;;;;;;21.78;57.52;99918.31;5084971;28;20052;-56
2023/08/06 03:30:09;;;;;;;6.57;5.20;;;;;;;21.47;57.88;99931.03;5066428;28;20075;-56
2023/08/06 03:32:39;;;;;;;4.80;3.53;;;;;;;21.40;57.93;99935.06;5078798;28;20127;-56
2023/08/06 03:35:10;;;;;;;7.57;3.50;;;;;;;20.92;57.94;99908.09;5063697;28;20057;-57
2023/08/06 03:37:43;;;;;;;6.33;3.50;;;;;;;20.89;57.64;99929.50;5076868;28;20055;-56
2023/08/06 03:40:13;;;;;;;5.83;3.87;;;;;;;20.78;58.83;99926.72;5072465;28;20358;-57
2023/08/06 03:42:44;;;;;;;7.97;4.20;;;;;;;20.85;59.90;99941.31;5073538;28;20039;-58
2023/08/06 03:45:14;;;;;;;7.13;3.70;;;;;;;20.97;61.26;99937.84;5062502;28;20122;-56
2023/08/06 03:47:45;;;;;;;6.30;3.93;;;;;;;21.01;59.98;99947.31;5075261;28;20150;-56
2023/08/06 03:50:15;;;;;;;4.57;3.67;;;;;;;20.97;59.67;99942.31;5061510;28;20282;-56
2023/08/06 03:52:47;;;;;;;5.43;3.70;;;;;;;21.01;61.22;99944.66;5074226;28;20361;-58
2023/08/06 03:55:18;;;;;;;7.70;3.73;;;;;;;21.16;59.75;99936.66;5062253;28;20446;-57
2023/08/06 03:57:48;;;;;;;9.83;3.90;;;;;;;21.34;59.26;99946.06;5075229;28;20339;-57
2023/08/06 04:00:20;;;;;;;5.90;4.50;;;;;;;21.71;58.71;99948.94;5065091;28;20316;-57
2023/08/06 04:02:50;;;;;;;5.87;3.60;;;;;;;21.77;56.88;99937.91;5071480;28;20640;-57
2023/08/06 04:05:21;;;;;;;5.77;4.33;;;;;;;21.63;56.33;99930.00;5072090;28;20667;-56
2023/08/06 04:07:53;;;;;;;5.80;3.83;;;;;;;21.71;59.86;99933.00;5064387;28;20545;-56
2023/08/06 04:10:23;;;;;;;5.83;4.00;;;;;;;21.85;56.96;99940.88;5071899;28;20278;-56
2023/08/06 04:12:54;;;;;;;5.77;4.43;;;;;;;21.89;58.38;99937.06;5065931;28;20334;-57
2023/08/06 04:15:24;;;;;;;6.20;4.57;;;;;;;21.95;56.68;99939.28;5081263;28;20353;-57
2023/08/06 04:17:56;;;;;;;6.57;3.70;;;;;;;21.69;54.88;99924.25;5069679;28;20718;-56
2023/08/06 04:20:27;;;;;;;6.50;3.53;;;;;;;21.44;56.88;99920.63;5077995;28;20055;-56
2023/08/06 04:22:59;;;;;;;5.40;3.90;;;;;;;21.25;56.47;99936.91;5068984;28;20131;-56
2023/08/06 04:25:29;;;;;;;6.33;4.17;;;;;;;21.03;58.85;99926.81;5077709;28;20036;-56
2023/08/06 04:28:00;;;;;;;4.83;3.87;;;;;;;20.82;57.98;99928.22;5066429;28;20697;-57
2023/08/06 04:30:31;;;;;;;6.97;4.57;;;;;;;20.70;59.89;99923.69;5077702;28;20273;-58
2023/08/06 04:33:02;;;;;;;5.03;3.53;;;;;;;20.67;59.62;99930.91;5068763;28;20374;-57
2023/08/06 04:35:32;;;;;;;5.83;4.10;;;;;;;20.72;60.61;99921.78;5078291;28;20270;-58
2023/08/06 04:38:04;;;;;;;6.07;3.53;;;;;;;20.68;59.65;99921.97;5066124;28;20366;-57
2023/08/06 04:40:35;;;;;;;8.40;4.27;;;;;;;20.61;61.34;99920.66;5077381;28;20344;-56
2023/08/06 04:43:06;;;;;;;5.17;3.40;;;;;;;20.41;58.84;99918.38;5065615;28;20270;-58
2023/08/06 04:45:36;;;;;;;10.07;4.20;;;;;;;20.28;61.74;99914.81;5067563;28;20286;-55
2023/08/06 04:48:07;;;;;;;9.80;3.97;;;;;;;20.10;62.72;99919.44;5068487;28;20372;-56
2023/08/06 04:50:38;;;;;;;6.57;3.43;;;;;;;19.86;63.49;99927.94;5079921;28;20820;-56
2023/08/06 04:53:10;;;;;;;5.20;3.40;;;;;;;19.60;63.58;99917.06;5063812;28;20285;-56
2023/08/06 04:55:40;;;;;;;4.83;3.50;;;;;;;18.88;65.85;99831.22;5080728;28;20277;-58
2023/08/06 04:58:12;;;;;;;4.93;3.80;;;;;;;19.59;64.90;99941.00;5068007;28;20279;-58
2023/08/06 05:00:42;;;;;;;6.80;4.00;;;;;;;19.63;64.81;99931.94;5076889;28;20819;-56
2023/08/06 05:03:13;;;;;;;6.40;3.63;;;;;;;19.74;65.21;99937.47;5062275;28;20274;-59
2023/08/06 05:05:43;;;;;;;6.13;4.13;;;;;;;19.79;65.60;99942.50;5079548;28;20365;-58
2023/08/06 05:08:18;;;;;;;14.17;4.00;;;;;;;19.88;64.69;99946.41;5068224;28;20274;-58
2023/08/06 05:10:48;;;;;;;5.03;3.30;;;;;;;19.87;64.61;99929.66;5080683;28;20282;-57
2023/08/06 05:13:19;;;;;;;5.17;3.40;;;;;;;19.75;64.96;99928.59;5065972;28;20279;-56
2023/08/06 05:15:49;;;;;;;5.80;3.53;;;;;;;19.75;63.64;99923.28;5071586;28;20278;-56
2023/08/06 05:18:20;;;;;;;4.00;3.13;;;;;;;19.79;64.13;99930.13;5074871;28;20282;-57
2023/08/06 05:20:50;;;;;;;12.60;8.90;;;;;;;19.81;63.73;99925.56;5071306;28;20384;-56
2023/08/06 05:23:22;;;;;;;9.77;7.47;;;;;;;19.75;64.16;99930.38;5076128;28;20362;-58
2023/08/06 05:25:53;;;;;;;8.00;6.07;;;;;;;19.57;64.75;99927.00;5063410;28;20950;-56
2023/08/06 05:28:23;;;;;;;4.53;3.37;;;;;;;19.38;63.20;99928.06;5073772;28;20806;-57
2023/08/06 05:30:54;;;;;;;5.73;3.57;;;;;;;19.13;65.21;99911.91;5062268;28;20615;-58
2023/08/06 05:33:25;;;;;;;9.63;3.60;;;;;;;19.27;66.70;99945.50;5073738;28;20282;-58
2023/08/06 05:35:55;;;;;;;5.40;3.43;;;;;;;19.26;66.30;99943.81;5062490;28;20293;-58
2023/08/06 05:38:27;;;;;;;6.43;3.03;;;;;;;19.22;66.31;99942.28;5073873;28;20367;-58
2023/08/06 05:40:58;;;;;;;7.97;3.17;;;;;;;19.22;66.95;99951.09;5061915;28;20292;-59
2023/08/06 05:43:28;;;;;;;4.80;3.27;;;;;;;19.17;67.57;99951.34;5073893;28;20699;-60
2023/08/06 05:45:59;;;;;;;6.77;4.00;;;;;;;19.17;67.66;99947.88;5061355;28;20385;-58
2023/08/06 05:48:29;;;;;;;5.90;3.10;;;;;;;19.10;66.50;99950.00;5072739;28;20297;-59
2023/08/06 05:51:00;;;;;;;5.80;2.97;;;;;;;19.02;67.82;99961.94;5062748;28;20300;-59
2023/08/06 05:53:32;;;;;;;4.90;3.53;;;;;;;19.01;68.06;99962.91;5073243;28;20360;-58
2023/08/06 05:56:02;;;;;;;6.40;3.60;;;;;;;18.95;67.62;99957.00;5067816;28;20285;-59
2023/08/06 05:58:33;;;;;;;5.83;3.80;;;;;;;18.99;68.32;99951.53;5085293;28;20286;-59
2023/08/06 06:01:03;;;;;;;7.70;4.17;;;;;;;18.96;68.22;99953.41;5090561;28;20369;-59
2023/08/06 06:03:34;;;;;;;6.67;3.47;;;;;;;19.01;68.02;99954.94;5083069;28;20282;-60
2023/08/06 06:06:05;;;;;;;17.27;5.37;;;;;;;19.00;68.84;99961.19;5069487;28;20289;-59
2023/08/06 06:08:37;;;;;;;4.03;3.10;;;;;;;19.05;68.77;99953.84;5086421;28;20357;-57
2023/08/06 06:11:07;;;;;;;5.90;3.70;;;;;;;19.09;68.78;99958.00;5060817;28;20377;-57
2023/08/06 06:13:38;;;;;;;6.87;3.73;;;;;;;19.11;67.45;99958.78;5072450;28;20351;-58
2023/08/06 06:16:08;;;;;;;4.90;3.40;;;;;;;19.13;67.90;99951.63;5060865;28;20310;-59
2023/08/06 06:18:39;;;;;;;5.07;3.50;;;;;;;19.21;68.35;99961.78;5071957;28;20273;-58
2023/08/06 06:21:09;;;;;;;7.80;3.60;;;;;;;19.23;68.34;99959.91;5061406;28;20350;-59
2023/08/06 06:23:41;;;;;;;14.30;7.67;;;;;;;19.42;66.74;99964.97;5071126;28;20893;-59
2023/08/06 06:26:12;;;;;;;29.70;17.67;;;;;;;19.47;66.66;99963.78;5060790;28;20375;-59
2023/08/06 06:28:43;;;;;;;8.80;5.07;;;;;;;19.63;66.92;99954.94;5071442;28;20302;-59
2023/08/06 06:31:13;;;;;;;10.53;6.30;;;;;;;19.72;68.05;99951.75;5060762;28;20282;-57
2023/08/06 06:33:44;;;;;;;9.93;6.67;;;;;;;19.88;66.78;99946.41;5072157;28;20296;-56
2023/08/06 06:36:15;;;;;;;8.27;5.70;;;;;;;19.83;65.80;99955.47;5060946;28;20833;-58
2023/08/06 06:38:47;;;;;;;9.87;5.50;;;;;;;19.73;66.97;99954.31;5071120;28;20369;-58
2023/08/06 06:41:18;;;;;;;6.60;3.50;;;;;;;19.67;65.99;99960.00;5060809;28;20744;-58
2023/08/06 06:43:49;;;;;;;5.03;3.10;;;;;;;19.55;66.25;99960.69;5072692;28;20767;-59
2023/08/06 06:46:19;;;;;;;9.97;5.20;;;;;;;19.53;67.44;99967.88;5059353;28;20713;-58
2023/08/06 06:48:50;;;;;;;5.47;4.07;;;;;;;19.51;66.38;99972.41;5070468;28;20309;-58
2023/08/06 06:51:21;;;;;;;5.90;3.57;;;;;;;19.48;66.98;99975.22;5070724;28;20376;-58
2023/08/06 06:53:53;;;;;;;5.07;3.43;;;;;;;19.54;66.28;99972.22;5060035;28;20285;-58
2023/08/06 06:56:23;;;;;;;6.63;3.20;;;;;;;19.51;65.88;99981.19;5071461;28;20309;-58
2023/08/06 06:58:54;;;;;;;6.83;3.03;;;;;;;19.40;65.92;99984.47;5059966;28;20347;-58
2023/08/06 07:01:24;;;;;;;4.33;3.30;;;;;;;19.32;66.85;99976.13;5071870;28;20270;-57
2023/08/06 07:03:55;;;;;;;5.60;3.77;;;;;;;19.25;67.76;99971.25;5060237;28;20290;-58
2023/08/06 07:06:25;;;;;;;4.43;3.50;;;;;;;19.23;68.06;99976.63;5070877;28;20620;-58
2023/08/06 07:08:58;;;;;;;4.87;3.30;;;;;;;19.25;68.09;99971.25;5060519;28;20758;-58
2023/08/06 07:11:28;;;;;;;5.47;3.30;;;;;;;19.24;68.05;99973.03;5071296;28;20289;-58
2023/08/06 07:13:59;;;;;;;5.30;3.57;;;;;;;19.08;67.92;99951.03;5059465;28;20368;-55
2023/08/06 07:16:30;;;;;;;4.27;3.50;;;;;;;19.20;69.07;99982.13;5070461;28;20448;-57
2023/08/06 07:19:00;;;;;;;9.57;4.13;;;;;;;19.20;70.08;99989.22;5059351;28;20312;-59
2023/08/06 07:21:31;;;;;;;5.67;3.77;;;;;;;19.19;70.70;99996.28;5069988;28;20269;-57
2023/08/06 07:24:03;;;;;;;6.10;3.80;;;;;;;19.13;72.11;99991.34;5059641;28;20293;-58
2023/08/06 07:26:34;;;;;;;11.93;4.63;;;;;;;19.01;73.55;99986.72;5070136;28;20290;-58
2023/08/06 07:29:04;;;;;;;6.77;4.43;;;;;;;19.03;75.40;99996.28;5060820;28;20286;-58
2023/08/06 07:31:35;;;;;;;9.50;4.30;;;;;;;19.07;75.96;99986.38;5069739;28;20676;-58
2023/08/06 07:34:07;;;;;;;8.37;4.27;;;;;;;19.03;75.41;99979.56;5061162;28;20365;-57
2023/08/06 07:36:47;;;;;;;5.07;3.53;;;;;;;18.92;75.29;99983.66;5071111;28;20305;-58
2023/08/06 07:39:37;;;;;;;5.18;4.10;;;;;;;18.80;73.30;99984.34;5060184;28;20380;-58
2023/08/06 07:42:14;;;;;;;8.57;4.37;;;;;;;18.87;71.85;99991.00;5059961;28;21076;-58
2023/08/06 07:44:51;;;;;;;9.17;7.00;;;;;;;18.90;72.66;99996.13;5070986;28;20787;-58
2023/08/06 07:47:23;;;;;;;7.37;4.20;;;;;;;18.82;72.12;99998.34;5058410;28;20285;-58
2023/08/06 07:49:55;;;;;;;5.03;3.43;;;;;;;18.72;74.70;100007.66;5059752;28;20326;-57
2023/08/06 07:52:28;;;;;;;5.53;3.60;;;;;;;18.62;75.35;99995.88;5071678;28;20391;-58
2023/08/06 07:55:04;;;;;;;6.23;3.70;;;;;;;18.53;76.43;100003.38;5060227;28;20599;-58
2023/08/06 07:57:37;;;;;;;6.63;4.13;;;;;;;18.45;76.75;100005.59;5070835;28;20377;-58
2023/08/06 08:00:11;;;;;;;6.77;3.73;;;;;;;18.44;77.96;99998.56;5059428;28;20640;-57
2023/08/06 08:02:43;;;;;;;5.63;4.20;;;;;;;18.38;78.80;99998.91;5071340;28;20728;-58
2023/08/06 08:05:16;;;;;;;11.60;4.23;;;;;;;18.31;79.59;99997.50;5059721;28;20292;-58
2023/08/06 08:07:48;;;;;;;15.30;4.33;;;;;;;18.13;80.08;99972.91;5071114;28;20281;-57
2023/08/06 08:10:22;;;;;;;6.47;3.70;;;;;;;18.15;80.66;99996.63;5059014;28;20281;-58
2023/08/06 08:12:55;;;;;;;7.93;3.93;;;;;;;18.17;81.65;100005.31;5060340;28;20274;-58
2023/08/06 08:15:28;;;;;;;9.90;3.97;;;;;;;17.86;83.45;99959.31;5070734;28;20289;-58
2023/08/06 08:18:01;;;;;;;14.87;4.90;;;;;;;18.03;84.81;100001.59;5058296;28;20286;-58
2023/08/06 08:20:35;;;;;;;6.13;3.87;;;;;;;17.97;85.49;99994.00;5083029;28;20361;-59
2023/08/06 08:23:09;;;;;;;6.33;3.80;;;;;;;18.02;86.33;100005.19;5069144;28;20275;-58
2023/08/06 08:25:43;;;;;;;11.93;4.70;;;;;;;17.95;86.83;100001.13;5082996;28;20274;-59
2023/08/06 08:28:15;;;;;;;14.73;5.33;;;;;;;17.97;87.96;100004.56;5061349;28;20732;-59
2023/08/06 08:30:47;;;;;;;7.37;3.60;;;;;;;17.94;88.75;99994.13;5089209;28;20274;-59
2023/08/06 08:33:20;;;;;;;9.60;3.90;;;;;;;17.87;88.88;99998.00;5072793;28;20266;-59
2023/08/06 08:35:53;;;;;;;9.80;4.50;;;;;;;17.80;89.81;99996.63;5064605;28;20274;-58
2023/08/06 08:38:27;;;;;;;10.37;5.10;;;;;;;17.73;90.23;99993.41;5081353;28;20284;-59
2023/08/06 08:41:02;;;;;;;7.63;4.00;;;;;;;17.69;90.65;99997.97;5085581;28;20304;-59
2023/08/06 08:43:35;;;;;;;10.73;3.93;;;;;;;17.60;91.79;100009.03;5076044;28;20277;-59
2023/08/06 08:46:11;;;;;;;14.80;4.63;;;;;;;17.51;92.67;100012.09;5068787;28;20331;-59
2023/08/06 08:48:43;;;;;;;10.63;4.53;;;;;;;17.41;93.60;100016.13;5082329;28;20364;-59
2023/08/06 08:51:19;;;;;;;7.07;4.03;;;;;;;17.32;94.12;100016.56;5080523;28;20296;-58
2023/08/06 08:53:56;;;;;;;11.10;4.13;;;;;;;17.21;95.25;100019.72;5079520;28;20273;-57
2023/08/06 08:56:31;;;;;;;6.80;4.20;;;;;;;17.16;96.01;100027.00;5082914;28;20372;-58
2023/08/06 08:59:04;;;;;;;7.90;4.00;;;;;;;17.10;96.56;100022.88;5064729;28;20271;-58
2023/08/06 09:01:36;;;;;;;6.23;3.73;;;;;;;17.00;97.09;100018.97;5085964;28;20305;-59
2023/08/06 09:04:14;;;;;;;7.60;4.20;;;;;;;16.96;98.10;100025.31;5071712;28;20282;-58
2023/08/06 09:06:54;;;;;;;5.63;3.75;;;;;;;16.81;98.30;100003.97;5072178;28;20313;-57
2023/08/06 09:09:27;;;;;;;;;;;;;;;16.94;98.82;100027.16;5062528;28;20461;-58
2023/08/06 09:12:03;;;;;;;8.43;4.27;;;;;;;17.18;98.44;100025.16;5064061;28;20299;-58
2023/08/06 09:14:33;;;;;;;7.57;4.10;;;;;;;17.31;98.00;100030.72;5073660;28;20290;-57
2023/08/06 09:17:05;;;;;;;5.73;3.83;;;;;;;17.43;97.16;100035.41;5063095;28;20290;-58
2023/08/06 09:19:48;;;;;;;7.10;3.80;;;;;;;17.49;96.54;100029.81;5073160;28;20834;-58
2023/08/06 09:22:18;;;;;;;10.50;4.13;;;;;;;17.47;96.54;100042.22;5061581;28;20581;-58
2023/08/06 09:24:49;;;;;;;6.53;3.50;;;;;;;17.40;96.87;100046.97;5074122;28;20764;-58
2023/08/06 09:27:24;;;;;;;8.30;3.87;;;;;;;17.28;97.33;100036.16;5060474;28;20362;-59
2023/08/06 09:29:56;;;;;;;7.17;4.07;;;;;;;17.16;97.86;100046.34;5062466;28;20278;-58
2023/08/06 09:32:28;;;;;;;7.27;3.87;;;;;;;17.04;98.50;100044.28;5071482;28;20731;-59
2023/08/06 09:35:05;;;;;;;9.07;3.83;;;;;;;16.94;99.55;100045.63;5062943;28;20290;-58
2023/08/06 09:37:39;;;;;;;6.33;4.00;;;;;;;16.50;100.00;99999.22;5071561;28;20824;-58
2023/08/06 09:40:28;;;;;;;7.33;4.27;;;;;;;16.35;100.00;99976.19;5062846;28;20501;-58
2023/08/06 09:43:03;;;;;;;8.70;4.50;;;;;;;16.63;100.00;100039.09;5060925;28;20286;-58
2023/08/06 09:45:38;;;;;;;6.17;3.77;;;;;;;16.58;100.00;100051.63;5072536;28;20047;-58
2023/08/06 09:48:12;;;;;;;5.40;3.80;;;;;;;16.51;100.00;100071.28;5060883;28;20282;-58
2023/08/06 09:50:47;;;;;;;6.90;4.20;;;;;;;16.43;100.00;100073.41;5071162;28;20295;-58
2023/08/06 09:53:19;;;;;;;6.70;4.27;;;;;;;16.37;100.00;100080.66;5061522;28;20499;-57
2023/08/06 09:55:54;;;;;;;7.33;4.10;;;;;;;16.29;100.00;100081.91;5069253;28;20282;-57
2023/08/06 09:58:28;;;;;;;6.40;4.27;;;;;;;15.73;100.00;100009.59;5071160;28;20282;-57
2023/08/06 10:01:01;;;;;;;7.30;4.77;;;;;;;16.12;100.00;100085.25;5060732;28;20274;-58
2023/08/06 10:03:36;;;;;;;8.37;4.07;;;;;;;16.16;100.00;100097.38;5072848;28;20729;-58
2023/08/06 10:06:12;;;;;;;8.17;4.67;;;;;;;16.11;100.00;100094.09;5060562;28;20356;-57
2023/08/06 10:08:46;;;;;;;9.53;4.40;;;;;;;16.10;100.00;100092.34;5072800;28;20290;-58
2023/08/06 10:11:19;;;;;;;13.07;4.47;;;;;;;16.09;100.00;100090.66;5061140;28;20273;-58
2023/08/06 10:13:56;;;;;;;8.00;4.83;;;;;;;16.04;100.00;100095.25;5069968;28;20281;-57
2023/08/06 10:16:30;;;;;;;12.80;4.20;;;;;;;16.06;100.00;100096.06;5069323;28;20288;-57
2023/08/06 10:19:03;;;;;;;6.70;4.30;;;;;;;16.01;100.00;100093.59;5059210;28;20328;-58
2023/08/06 10:21:35;;;;;;;9.30;4.57;;;;;;;16.03;100.00;100114.63;5071262;28;20289;-58
2023/08/06 10:24:11;;;;;;;6.53;4.17;;;;;;;15.94;100.00;100103.53;5061067;28;20351;-58
2023/08/06 10:26:46;;;;;;;7.37;4.20;;;;;;;15.95;100.00;100107.91;5070859;28;20281;-58
2023/08/06 10:29:42;;;;;;;13.20;4.03;;;;;;;15.99;100.00;100110.41;5060640;28;20856;-58
2023/08/06 10:32:15;;;;;;;12.33;4.50;;;;;;;15.95;100.00;100121.06;5060490;28;20761;-58
2023/08/06 10:35:00;;;;;;;9.07;4.83;;;;;;;15.95;100.00;100125.50;5072534;28;20387;-57
2023/08/06 10:37:47;;;;;;;8.27;4.60;;;;;;;15.93;100.00;100122.91;5070715;28;20650;-57
2023/08/06 10:40:34;;;;;;;10.00;4.10;;;;;;;15.87;100.00;100128.41;5059550;28;20370;-58
2023/08/06 10:43:10;;;;;;;12.63;4.45;;;;;;;15.85;100.00;100130.28;4989082;28;20291;-57
2023/08/06 10:45:54;;;;;;;9.37;4.43;;;;;;;15.85;100.00;100130.28;4999253;28;20068;-58
2023/08/06 10:48:51;;;;;;;8.67;4.73;;;;;;;15.81;100.00;100133.94;4987694;28;20269;-58
2023/08/06 10:51:37;;;;;;;7.23;4.67;;;;;;;15.75;100.00;100139.47;4938505;28;20282;-58
2023/08/06 10:54:09;;;;;;;8.23;4.70;;;;;;;15.68;100.00;100137.97;4926433;28;20338;-58
2023/08/06 10:56:44;;;;;;;8.00;4.17;;;;;;;15.58;100.00;100126.06;4934099;28;20432;-58
2023/08/06 10:59:18;;;;;;;11.83;4.87;;;;;;;15.50;100.00;100135.13;4929033;28;20294;-57
2023/08/06 11:01:52;;;;;;;14.10;6.17;;;;;;;15.48;100.00;100142.22;4938408;28;20641;-58
2023/08/06 11:04:26;;;;;;;9.80;5.57;;;;;;;15.45;100.00;100147.63;4924489;28;20298;-58
2023/08/06 11:06:59;;;;;;;14.63;6.73;;;;;;;15.37;100.00;100149.66;4925685;28;20307;-58
2023/08/06 11:09:31;;;;;;;13.60;7.00;;;;;;;15.30;100.00;100138.53;4938187;28;20734;-58
2023/08/06 11:12:02;;;;;;;11.20;6.57;;;;;;;15.24;100.00;100135.25;4921898;28;20298;-58
2023/08/06 11:14:35;;;;;;;13.00;6.40;;;;;;;15.19;100.00;100139.84;4938093;28;20346;-57
2023/08/06 11:17:08;;;;;;;13.23;7.50;;;;;;;15.09;100.00;100140.16;4928478;28;20290;-58
2023/08/06 11:19:40;;;;;;;18.50;8.10;;;;;;;14.97;100.00;100140.63;4949198;28;20313;-57
2023/08/06 11:22:13;;;;;;;15.43;7.70;;;;;;;14.88;100.00;100146.22;4988090;28;20713;-58
2023/08/06 11:24:51;;;;;;;13.13;6.30;;;;;;;14.59;100.00;100115.69;4997401;28;20280;-57
2023/08/06 11:27:24;;;;;;;12.37;6.93;;;;;;;14.66;100.00;100139.09;4998168;28;20415;-58
2023/08/06 11:29:57;;;;;;;14.37;6.53;;;;;;;14.55;100.00;100133.38;5048724;28;20779;-58
2023/08/06 11:32:31;;;;;;;17.13;6.60;;;;;;;14.36;100.00;100121.72;5070976;28;20663;-58
2023/08/06 11:35:12;;;;;;;14.03;5.77;;;;;;;14.38;100.00;100147.06;5060945;28;20774;-57
2023/08/06 11:37:48;;;;;;;7.23;4.60;;;;;;;14.11;100.00;100122.56;5069813;28;20278;-57
2023/08/06 11:40:20;;;;;;;11.47;4.43;;;;;;;14.24;100.00;100152.75;5060024;28;20293;-58
2023/08/06 11:42:55;;;;;;;9.83;4.70;;;;;;;14.20;100.00;100148.53;5062230;28;20290;-57
2023/08/06 11:45:28;;;;;;;9.17;4.87;;;;;;;14.14;100.00;100148.72;5069088;28;20330;-58
2023/08/06 11:48:01;;;;;;;9.90;4.47;;;;;;;13.91;100.00;100135.47;5059593;28;20608;-58
2023/08/06 11:50:39;;;;;;;7.43;4.23;;;;;;;13.91;100.00;100146.84;5069711;28;20293;-55
2023/08/06 11:53:15;;;;;;;12.00;5.67;;;;;;;13.97;100.00;100151.03;5058371;28;20284;-58